Terminal Aerodrome Forecast
Issued by NWS

Home | Current Version | Previous Version | Text Only | Print | Product List | Glossary On
Versions: 1 2 3 4 5 6 7 8 9 10 11 12 13 14 15 16 17 18 19 20 21 22 23 24 25 26
000
FTAK31 PAFA 161738
TAFAMC
TAF
PAMC 161738Z 1618/1718 12006KT P6SM VCSH BKN024 BKN045
     FM162200 15004KT P6SM VCSH BKN050 BKN100
     FM171000 07002KT P6SM BKN100=

USA.gov is the U.S. government's official web portal to all federal, state and local government web resources and services.